sensor_id;sensor_type;location;lat;lon;timestamp;P1;durP1;ratioP1;P2;durP2;ratioP2
25497;SDS011;13406;53.380;7.226;2024-03-06T00:02:03;13.00;;;6.80;;
25497;SDS011;13406;53.380;7.226;2024-03-06T00:04:29;14.43;;;7.53;;
25497;SDS011;13406;53.380;7.226;2024-03-06T00:06:55;11.53;;;7.00;;
25497;SDS011;13406;53.380;7.226;2024-03-06T00:09:20;11.73;;;6.77;;
25497;SDS011;13406;53.380;7.226;2024-03-06T00:11:46;10.03;;;6.33;;
25497;SDS011;13406;53.380;7.226;2024-03-06T00:14:14;12.80;;;7.73;;
25497;SDS011;13406;53.380;7.226;2024-03-06T00:16:39;14.07;;;7.70;;
25497;SDS011;13406;53.380;7.226;2024-03-06T00:19:05;12.93;;;7.80;;
25497;SDS011;13406;53.380;7.226;2024-03-06T00:21:30;12.07;;;6.70;;
25497;SDS011;13406;53.380;7.226;2024-03-06T00:23:56;13.13;;;7.70;;
25497;SDS011;13406;53.380;7.226;2024-03-06T00:26:21;13.00;;;7.63;;
25497;SDS011;13406;53.380;7.226;2024-03-06T00:28:47;11.63;;;6.77;;
25497;SDS011;13406;53.380;7.226;2024-03-06T00:31:12;12.60;;;6.97;;
25497;SDS011;13406;53.380;7.226;2024-03-06T00:33:38;9.93;;;6.50;;
25497;SDS011;13406;53.380;7.226;2024-03-06T00:36:05;11.67;;;6.87;;
25497;SDS011;13406;53.380;7.226;2024-03-06T00:38:33;12.67;;;7.23;;
25497;SDS011;13406;53.380;7.226;2024-03-06T00:40:59;13.57;;;7.57;;
25497;SDS011;13406;53.380;7.226;2024-03-06T00:43:24;11.33;;;7.40;;
25497;SDS011;13406;53.380;7.226;2024-03-06T00:45:52;10.50;;;6.60;;
25497;SDS011;13406;53.380;7.226;2024-03-06T00:48:17;16.53;;;7.43;;
25497;SDS011;13406;53.380;7.226;2024-03-06T00:50:45;14.77;;;6.80;;
25497;SDS011;13406;53.380;7.226;2024-03-06T00:53:10;13.93;;;7.37;;
25497;SDS011;13406;53.380;7.226;2024-03-06T00:55:36;10.60;;;6.90;;
25497;SDS011;13406;53.380;7.226;2024-03-06T00:58:01;13.33;;;7.17;;
25497;SDS011;13406;53.380;7.226;2024-03-06T01:00:27;14.63;;;7.60;;
25497;SDS011;13406;53.380;7.226;2024-03-06T01:02:52;12.80;;;7.50;;
25497;SDS011;13406;53.380;7.226;2024-03-06T01:05:18;12.23;;;6.97;;
25497;SDS011;13406;53.380;7.226;2024-03-06T01:07:43;14.27;;;7.37;;
25497;SDS011;13406;53.380;7.226;2024-03-06T01:10:09;11.00;;;7.00;;
25497;SDS011;13406;53.380;7.226;2024-03-06T01:12:35;12.47;;;8.10;;
25497;SDS011;13406;53.380;7.226;2024-03-06T01:15:01;13.23;;;7.73;;
25497;SDS011;13406;53.380;7.226;2024-03-06T01:17:27;15.60;;;7.30;;
25497;SDS011;13406;53.380;7.226;2024-03-06T01:19:53;12.23;;;8.10;;
25497;SDS011;13406;53.380;7.226;2024-03-06T01:22:18;11.73;;;7.70;;
25497;SDS011;13406;53.380;7.226;2024-03-06T01:24:44;14.27;;;8.67;;
25497;SDS011;13406;53.380;7.226;2024-03-06T01:27:10;11.33;;;7.30;;
25497;SDS011;13406;53.380;7.226;2024-03-06T01:29:35;12.17;;;8.00;;
25497;SDS011;13406;53.380;7.226;2024-03-06T01:32:04;13.93;;;7.83;;
25497;SDS011;13406;53.380;7.226;2024-03-06T01:34:30;12.47;;;7.50;;
25497;SDS011;13406;53.380;7.226;2024-03-06T01:36:55;14.13;;;8.80;;
25497;SDS011;13406;53.380;7.226;2024-03-06T01:39:21;14.30;;;8.77;;
25497;SDS011;13406;53.380;7.226;2024-03-06T01:41:47;13.57;;;8.57;;
25497;SDS011;13406;53.380;7.226;2024-03-06T01:44:14;17.53;;;8.93;;
25497;SDS011;13406;53.380;7.226;2024-03-06T01:46:39;13.37;;;8.73;;
25497;SDS011;13406;53.380;7.226;2024-03-06T01:49:05;17.90;;;8.97;;
25497;SDS011;13406;53.380;7.226;2024-03-06T01:51:31;14.07;;;9.00;;
25497;SDS011;13406;53.380;7.226;2024-03-06T01:53:57;15.80;;;8.30;;
25497;SDS011;13406;53.380;7.226;2024-03-06T01:56:23;12.47;;;8.30;;
25497;SDS011;13406;53.380;7.226;2024-03-06T01:58:49;17.20;;;8.80;;
25497;SDS011;13406;53.380;7.226;2024-03-06T02:01:14;14.17;;;8.70;;
25497;SDS011;13406;53.380;7.226;2024-03-06T02:03:42;14.20;;;8.33;;
25497;SDS011;13406;53.380;7.226;2024-03-06T02:06:09;15.47;;;8.90;;
25497;SDS011;13406;53.380;7.226;2024-03-06T02:08:36;14.43;;;8.70;;
25497;SDS011;13406;53.380;7.226;2024-03-06T02:11:01;13.10;;;8.40;;
25497;SDS011;13406;53.380;7.226;2024-03-06T02:13:28;14.67;;;9.40;;
25497;SDS011;13406;53.380;7.226;2024-03-06T02:15:54;12.30;;;8.33;;
25497;SDS011;13406;53.380;7.226;2024-03-06T02:18:20;18.97;;;8.90;;
25497;SDS011;13406;53.380;7.226;2024-03-06T02:20:46;14.57;;;9.13;;
25497;SDS011;13406;53.380;7.226;2024-03-06T02:23:12;15.93;;;8.67;;
25497;SDS011;13406;53.380;7.226;2024-03-06T02:25:39;14.80;;;9.00;;
25497;SDS011;13406;53.380;7.226;2024-03-06T02:28:05;13.80;;;8.63;;
25497;SDS011;13406;53.380;7.226;2024-03-06T02:30:33;14.93;;;8.67;;
25497;SDS011;13406;53.380;7.226;2024-03-06T02:33:02;13.90;;;8.33;;
25497;SDS011;13406;53.380;7.226;2024-03-06T02:35:31;14.43;;;9.00;;
25497;SDS011;13406;53.380;7.226;2024-03-06T02:37:58;12.07;;;8.30;;
25497;SDS011;13406;53.380;7.226;2024-03-06T02:40:25;13.63;;;8.70;;
25497;SDS011;13406;53.380;7.226;2024-03-06T02:42:50;13.53;;;8.70;;
25497;SDS011;13406;53.380;7.226;2024-03-06T02:45:15;12.53;;;8.50;;
25497;SDS011;13406;53.380;7.226;2024-03-06T02:47:41;14.40;;;8.73;;
25497;SDS011;13406;53.380;7.226;2024-03-06T02:50:07;11.63;;;8.13;;
25497;SDS011;13406;53.380;7.226;2024-03-06T02:52:33;14.03;;;8.63;;
25497;SDS011;13406;53.380;7.226;2024-03-06T02:54:58;12.97;;;9.10;;
25497;SDS011;13406;53.380;7.226;2024-03-06T02:57:28;13.20;;;8.33;;
25497;SDS011;13406;53.380;7.226;2024-03-06T02:59:54;12.67;;;9.27;;
25497;SDS011;13406;53.380;7.226;2024-03-06T03:02:21;16.20;;;8.60;;
25497;SDS011;13406;53.380;7.226;2024-03-06T03:04:46;12.63;;;7.90;;
25497;SDS011;13406;53.380;7.226;2024-03-06T03:07:12;15.23;;;9.20;;
25497;SDS011;13406;53.380;7.226;2024-03-06T03:09:37;14.60;;;9.20;;
25497;SDS011;13406;53.380;7.226;2024-03-06T03:12:03;13.80;;;9.03;;
25497;SDS011;13406;53.380;7.226;2024-03-06T03:14:29;14.50;;;8.40;;
25497;SDS011;13406;53.380;7.226;2024-03-06T03:16:54;15.20;;;8.60;;
25497;SDS011;13406;53.380;7.226;2024-03-06T03:19:20;14.07;;;8.90;;
25497;SDS011;13406;53.380;7.226;2024-03-06T03:21:45;13.90;;;8.50;;
25497;SDS011;13406;53.380;7.226;2024-03-06T03:24:11;15.40;;;9.70;;
25497;SDS011;13406;53.380;7.226;2024-03-06T03:26:36;12.30;;;8.40;;
25497;SDS011;13406;53.380;7.226;2024-03-06T03:29:02;13.07;;;8.90;;
25497;SDS011;13406;53.380;7.226;2024-03-06T03:31:28;15.23;;;8.57;;
25497;SDS011;13406;53.380;7.226;2024-03-06T03:33:53;12.67;;;8.60;;
25497;SDS011;13406;53.380;7.226;2024-03-06T03:36:19;13.53;;;8.33;;
25497;SDS011;13406;53.380;7.226;2024-03-06T03:38:44;14.57;;;9.00;;
25497;SDS011;13406;53.380;7.226;2024-03-06T03:41:10;15.20;;;8.90;;
25497;SDS011;13406;53.380;7.226;2024-03-06T03:43:41;12.83;;;8.13;;
25497;SDS011;13406;53.380;7.226;2024-03-06T03:46:07;13.40;;;8.63;;
25497;SDS011;13406;53.380;7.226;2024-03-06T03:48:34;14.53;;;8.80;;
25497;SDS011;13406;53.380;7.226;2024-03-06T03:51:05;15.27;;;9.20;;
25497;SDS011;13406;53.380;7.226;2024-03-06T03:53:32;15.60;;;9.77;;
25497;SDS011;13406;53.380;7.226;2024-03-06T03:55:58;13.47;;;8.53;;
25497;SDS011;13406;53.380;7.226;2024-03-06T03:58:24;14.00;;;9.07;;
25497;SDS011;13406;53.380;7.226;2024-03-06T04:00:49;14.40;;;8.10;;
25497;SDS011;13406;53.380;7.226;2024-03-06T04:03:17;12.47;;;8.50;;
25497;SDS011;13406;53.380;7.226;2024-03-06T04:05:49;14.73;;;9.47;;
25497;SDS011;13406;53.380;7.226;2024-03-06T04:08:15;13.83;;;7.77;;
25497;SDS011;13406;53.380;7.226;2024-03-06T04:10:43;12.53;;;8.30;;
25497;SDS011;13406;53.380;7.226;2024-03-06T04:13:12;13.10;;;8.20;;
25497;SDS011;13406;53.380;7.226;2024-03-06T04:15:38;12.77;;;8.20;;
25497;SDS011;13406;53.380;7.226;2024-03-06T04:18:03;12.87;;;8.73;;
25497;SDS011;13406;53.380;7.226;2024-03-06T04:20:31;14.40;;;8.93;;
25497;SDS011;13406;53.380;7.226;2024-03-06T04:22:56;14.53;;;8.87;;
25497;SDS011;13406;53.380;7.226;2024-03-06T04:25:22;12.83;;;8.60;;
25497;SDS011;13406;53.380;7.226;2024-03-06T04:27:48;14.63;;;8.50;;
25497;SDS011;13406;53.380;7.226;2024-03-06T04:30:15;14.53;;;9.33;;
25497;SDS011;13406;53.380;7.226;2024-03-06T04:32:41;13.97;;;9.60;;
25497;SDS011;13406;53.380;7.226;2024-03-06T04:35:06;12.33;;;8.00;;
25497;SDS011;13406;53.380;7.226;2024-03-06T04:37:34;12.10;;;7.53;;
25497;SDS011;13406;53.380;7.226;2024-03-06T04:40:00;15.20;;;8.20;;
25497;SDS011;13406;53.380;7.226;2024-03-06T04:42:25;13.83;;;8.20;;
25497;SDS011;13406;53.380;7.226;2024-03-06T04:44:50;14.30;;;8.70;;
25497;SDS011;13406;53.380;7.226;2024-03-06T04:47:16;12.53;;;7.67;;
25497;SDS011;13406;53.380;7.226;2024-03-06T04:49:41;15.27;;;9.00;;
25497;SDS011;13406;53.380;7.226;2024-03-06T04:52:07;15.23;;;9.00;;
25497;SDS011;13406;53.380;7.226;2024-03-06T04:54:34;16.10;;;9.67;;
25497;SDS011;13406;53.380;7.226;2024-03-06T04:56:59;13.60;;;8.30;;
25497;SDS011;13406;53.380;7.226;2024-03-06T04:59:25;13.77;;;8.57;;
25497;SDS011;13406;53.380;7.226;2024-03-06T05:01:51;13.20;;;9.03;;
25497;SDS011;13406;53.380;7.226;2024-03-06T05:04:17;12.70;;;8.37;;
25497;SDS011;13406;53.380;7.226;2024-03-06T05:06:43;12.77;;;7.90;;
25497;SDS011;13406;53.380;7.226;2024-03-06T05:09:08;13.93;;;8.30;;
25497;SDS011;13406;53.380;7.226;2024-03-06T05:11:37;12.53;;;8.93;;
25497;SDS011;13406;53.380;7.226;2024-03-06T05:14:03;13.63;;;8.60;;
25497;SDS011;13406;53.380;7.226;2024-03-06T05:16:29;13.97;;;9.83;;
25497;SDS011;13406;53.380;7.226;2024-03-06T05:18:54;14.53;;;8.70;;
25497;SDS011;13406;53.380;7.226;2024-03-06T05:21:20;16.30;;;9.17;;
25497;SDS011;13406;53.380;7.226;2024-03-06T05:23:47;13.23;;;8.67;;
25497;SDS011;13406;53.380;7.226;2024-03-06T05:26:13;14.90;;;9.37;;
25497;SDS011;13406;53.380;7.226;2024-03-06T05:28:40;13.50;;;9.10;;
25497;SDS011;13406;53.380;7.226;2024-03-06T05:31:15;17.67;;;9.47;;
25497;SDS011;13406;53.380;7.226;2024-03-06T05:33:46;12.93;;;8.50;;
25497;SDS011;13406;53.380;7.226;2024-03-06T05:36:12;14.20;;;9.17;;
25497;SDS011;13406;53.380;7.226;2024-03-06T05:38:42;17.83;;;9.50;;
25497;SDS011;13406;53.380;7.226;2024-03-06T05:41:08;11.63;;;8.03;;
25497;SDS011;13406;53.380;7.226;2024-03-06T05:43:34;15.33;;;9.47;;
25497;SDS011;13406;53.380;7.226;2024-03-06T05:45:59;13.53;;;8.60;;
25497;SDS011;13406;53.380;7.226;2024-03-06T05:48:25;14.50;;;9.13;;
25497;SDS011;13406;53.380;7.226;2024-03-06T05:50:51;14.47;;;9.00;;
25497;SDS011;13406;53.380;7.226;2024-03-06T05:53:17;14.87;;;8.27;;
25497;SDS011;13406;53.380;7.226;2024-03-06T05:55:43;13.30;;;8.60;;
25497;SDS011;13406;53.380;7.226;2024-03-06T05:58:09;11.30;;;7.83;;
25497;SDS011;13406;53.380;7.226;2024-03-06T06:00:34;15.90;;;9.27;;
25497;SDS011;13406;53.380;7.226;2024-03-06T06:03:00;14.30;;;8.87;;
25497;SDS011;13406;53.380;7.226;2024-03-06T06:05:25;14.40;;;8.93;;
25497;SDS011;13406;53.380;7.226;2024-03-06T06:07:51;12.93;;;8.27;;
25497;SDS011;13406;53.380;7.226;2024-03-06T06:10:16;12.33;;;7.13;;
25497;SDS011;13406;53.380;7.226;2024-03-06T06:12:42;13.00;;;9.13;;
25497;SDS011;13406;53.380;7.226;2024-03-06T06:15:08;13.00;;;8.90;;
25497;SDS011;13406;53.380;7.226;2024-03-06T06:17:34;13.60;;;8.70;;
25497;SDS011;13406;53.380;7.226;2024-03-06T06:19:59;12.40;;;8.53;;
25497;SDS011;13406;53.380;7.226;2024-03-06T06:22:28;13.97;;;9.50;;
25497;SDS011;13406;53.380;7.226;2024-03-06T06:24:54;19.27;;;9.10;;
25497;SDS011;13406;53.380;7.226;2024-03-06T06:27:20;14.93;;;9.50;;
25497;SDS011;13406;53.380;7.226;2024-03-06T06:29:46;13.60;;;9.20;;
25497;SDS011;13406;53.380;7.226;2024-03-06T06:32:12;14.73;;;9.70;;
25497;SDS011;13406;53.380;7.226;2024-03-06T06:34:37;14.33;;;8.27;;
25497;SDS011;13406;53.380;7.226;2024-03-06T06:37:02;12.50;;;8.67;;
25497;SDS011;13406;53.380;7.226;2024-03-06T06:39:28;14.00;;;8.13;;
25497;SDS011;13406;53.380;7.226;2024-03-06T06:41:53;14.60;;;9.00;;
25497;SDS011;13406;53.380;7.226;2024-03-06T06:44:19;13.50;;;8.70;;
25497;SDS011;13406;53.380;7.226;2024-03-06T06:46:44;13.90;;;9.57;;
25497;SDS011;13406;53.380;7.226;2024-03-06T06:49:09;14.70;;;8.73;;
25497;SDS011;13406;53.380;7.226;2024-03-06T06:51:35;13.40;;;8.13;;
25497;SDS011;13406;53.380;7.226;2024-03-06T06:54:00;15.67;;;8.93;;
25497;SDS011;13406;53.380;7.226;2024-03-06T06:56:26;14.90;;;9.27;;
25497;SDS011;13406;53.380;7.226;2024-03-06T06:58:52;15.03;;;9.33;;
25497;SDS011;13406;53.380;7.226;2024-03-06T07:01:18;18.10;;;9.87;;
25497;SDS011;13406;53.380;7.226;2024-03-06T07:03:44;14.53;;;9.47;;
25497;SDS011;13406;53.380;7.226;2024-03-06T07:06:09;17.93;;;10.07;;
25497;SDS011;13406;53.380;7.226;2024-03-06T07:08:36;15.80;;;8.63;;
25497;SDS011;13406;53.380;7.226;2024-03-06T07:11:02;15.10;;;10.03;;
25497;SDS011;13406;53.380;7.226;2024-03-06T07:13:28;15.00;;;9.33;;
25497;SDS011;13406;53.380;7.226;2024-03-06T07:15:53;14.20;;;9.40;;
25497;SDS011;13406;53.380;7.226;2024-03-06T07:18:18;14.60;;;8.97;;
25497;SDS011;13406;53.380;7.226;2024-03-06T07:20:44;14.20;;;9.10;;
25497;SDS011;13406;53.380;7.226;2024-03-06T07:23:09;13.37;;;9.20;;
25497;SDS011;13406;53.380;7.226;2024-03-06T07:25:35;13.93;;;8.43;;
25497;SDS011;13406;53.380;7.226;2024-03-06T07:28:01;16.23;;;9.50;;
25497;SDS011;13406;53.380;7.226;2024-03-06T07:30:27;16.40;;;10.00;;
25497;SDS011;13406;53.380;7.226;2024-03-06T07:32:54;13.80;;;9.70;;
25497;SDS011;13406;53.380;7.226;2024-03-06T07:35:20;14.53;;;9.17;;
25497;SDS011;13406;53.380;7.226;2024-03-06T07:37:45;15.07;;;9.03;;
25497;SDS011;13406;53.380;7.226;2024-03-06T07:40:12;12.50;;;8.60;;
25497;SDS011;13406;53.380;7.226;2024-03-06T07:42:37;13.77;;;8.17;;
25497;SDS011;13406;53.380;7.226;2024-03-06T07:45:03;16.23;;;8.70;;
25497;SDS011;13406;53.380;7.226;2024-03-06T07:47:30;18.13;;;8.80;;
25497;SDS011;13406;53.380;7.226;2024-03-06T07:49:55;14.30;;;9.50;;
25497;SDS011;13406;53.380;7.226;2024-03-06T07:52:21;15.77;;;8.70;;
25497;SDS011;13406;53.380;7.226;2024-03-06T07:54:46;17.23;;;9.50;;
25497;SDS011;13406;53.380;7.226;2024-03-06T07:57:12;13.43;;;9.10;;
25497;SDS011;13406;53.380;7.226;2024-03-06T07:59:37;14.20;;;9.00;;
25497;SDS011;13406;53.380;7.226;2024-03-06T08:02:03;14.63;;;8.63;;
25497;SDS011;13406;53.380;7.226;2024-03-06T08:04:29;13.87;;;8.63;;
25497;SDS011;13406;53.380;7.226;2024-03-06T08:06:55;13.70;;;9.00;;
25497;SDS011;13406;53.380;7.226;2024-03-06T08:09:20;15.80;;;9.67;;
25497;SDS011;13406;53.380;7.226;2024-03-06T08:11:46;12.37;;;8.50;;
25497;SDS011;13406;53.380;7.226;2024-03-06T08:14:11;14.40;;;9.50;;
25497;SDS011;13406;53.380;7.226;2024-03-06T08:16:39;12.93;;;9.00;;
25497;SDS011;13406;53.380;7.226;2024-03-06T08:19:05;13.13;;;9.07;;
25497;SDS011;13406;53.380;7.226;2024-03-06T08:21:30;15.90;;;9.10;;
25497;SDS011;13406;53.380;7.226;2024-03-06T08:23:56;12.67;;;8.70;;
25497;SDS011;13406;53.380;7.226;2024-03-06T08:26:22;16.27;;;7.90;;
25497;SDS011;13406;53.380;7.226;2024-03-06T08:28:48;15.20;;;9.40;;
25497;SDS011;13406;53.380;7.226;2024-03-06T08:31:14;13.77;;;8.30;;
25497;SDS011;13406;53.380;7.226;2024-03-06T08:33:39;13.87;;;9.30;;
25497;SDS011;13406;53.380;7.226;2024-03-06T08:36:05;13.07;;;9.07;;
25497;SDS011;13406;53.380;7.226;2024-03-06T08:38:30;14.87;;;9.70;;
25497;SDS011;13406;53.380;7.226;2024-03-06T08:40:56;14.43;;;9.03;;
25497;SDS011;13406;53.380;7.226;2024-03-06T08:43:21;15.40;;;8.90;;
25497;SDS011;13406;53.380;7.226;2024-03-06T08:45:46;13.60;;;8.90;;
25497;SDS011;13406;53.380;7.226;2024-03-06T08:48:12;13.10;;;8.73;;
25497;SDS011;13406;53.380;7.226;2024-03-06T08:50:38;14.07;;;9.20;;
25497;SDS011;13406;53.380;7.226;2024-03-06T08:53:03;15.90;;;9.90;;
25497;SDS011;13406;53.380;7.226;2024-03-06T08:55:29;11.70;;;8.30;;
25497;SDS011;13406;53.380;7.226;2024-03-06T08:57:54;13.20;;;9.30;;
25497;SDS011;13406;53.380;7.226;2024-03-06T09:00:20;13.90;;;9.27;;
25497;SDS011;13406;53.380;7.226;2024-03-06T09:02:45;14.60;;;9.40;;
25497;SDS011;13406;53.380;7.226;2024-03-06T09:05:11;14.40;;;8.90;;
25497;SDS011;13406;53.380;7.226;2024-03-06T09:07:37;13.10;;;9.00;;
25497;SDS011;13406;53.380;7.226;2024-03-06T09:10:05;16.87;;;10.10;;
25497;SDS011;13406;53.380;7.226;2024-03-06T09:12:32;14.70;;;8.60;;
25497;SDS011;13406;53.380;7.226;2024-03-06T09:14:58;15.30;;;10.03;;
25497;SDS011;13406;53.380;7.226;2024-03-06T09:17:25;13.53;;;9.03;;
25497;SDS011;13406;53.380;7.226;2024-03-06T09:19:51;15.57;;;9.50;;
25497;SDS011;13406;53.380;7.226;2024-03-06T09:22:17;12.63;;;9.03;;
25497;SDS011;13406;53.380;7.226;2024-03-06T09:24:42;20.03;;;8.93;;
25497;SDS011;13406;53.380;7.226;2024-03-06T09:27:08;16.47;;;9.70;;
25497;SDS011;13406;53.380;7.226;2024-03-06T09:29:33;13.67;;;9.43;;
25497;SDS011;13406;53.380;7.226;2024-03-06T09:31:58;18.37;;;9.93;;
25497;SDS011;13406;53.380;7.226;2024-03-06T09:34:24;15.70;;;10.10;;
25497;SDS011;13406;53.380;7.226;2024-03-06T09:36:49;15.83;;;9.00;;
25497;SDS011;13406;53.380;7.226;2024-03-06T09:39:18;14.37;;;9.63;;
25497;SDS011;13406;53.380;7.226;2024-03-06T09:41:53;13.50;;;9.93;;
25497;SDS011;13406;53.380;7.226;2024-03-06T09:44:19;14.63;;;9.40;;
25497;SDS011;13406;53.380;7.226;2024-03-06T09:46:47;15.47;;;9.20;;
25497;SDS011;13406;53.380;7.226;2024-03-06T09:49:17;15.87;;;10.43;;
25497;SDS011;13406;53.380;7.226;2024-03-06T09:51:46;15.03;;;10.20;;
25497;SDS011;13406;53.380;7.226;2024-03-06T09:54:17;12.80;;;9.50;;
25497;SDS011;13406;53.380;7.226;2024-03-06T09:56:44;17.00;;;10.30;;
25497;SDS011;13406;53.380;7.226;2024-03-06T09:59:10;15.23;;;9.47;;
25497;SDS011;13406;53.380;7.226;2024-03-06T10:01:41;18.57;;;10.63;;
25497;SDS011;13406;53.380;7.226;2024-03-06T10:04:25;15.23;;;9.90;;
25497;SDS011;13406;53.380;7.226;2024-03-06T10:06:55;14.23;;;9.67;;
25497;SDS011;13406;53.380;7.226;2024-03-06T10:09:21;16.20;;;11.00;;
25497;SDS011;13406;53.380;7.226;2024-03-06T10:11:47;14.73;;;9.77;;
25497;SDS011;13406;53.380;7.226;2024-03-06T10:14:12;13.80;;;9.40;;
25497;SDS011;13406;53.380;7.226;2024-03-06T10:16:58;14.93;;;9.90;;
25497;SDS011;13406;53.380;7.226;2024-03-06T10:19:25;14.23;;;9.63;;
25497;SDS011;13406;53.380;7.226;2024-03-06T10:21:52;16.60;;;10.20;;
25497;SDS011;13406;53.380;7.226;2024-03-06T10:24:19;14.33;;;10.20;;
25497;SDS011;13406;53.380;7.226;2024-03-06T10:26:45;13.67;;;8.80;;
25497;SDS011;13406;53.380;7.226;2024-03-06T10:29:14;16.53;;;9.30;;
25497;SDS011;13406;53.380;7.226;2024-03-06T10:31:47;15.83;;;10.40;;
25497;SDS011;13406;53.380;7.226;2024-03-06T10:34:20;15.47;;;10.50;;
25497;SDS011;13406;53.380;7.226;2024-03-06T10:36:46;14.37;;;10.17;;
25497;SDS011;13406;53.380;7.226;2024-03-06T10:39:26;16.80;;;10.37;;
25497;SDS011;13406;53.380;7.226;2024-03-06T10:41:53;15.00;;;10.07;;
25497;SDS011;13406;53.380;7.226;2024-03-06T10:44:23;15.40;;;10.60;;
25497;SDS011;13406;53.380;7.226;2024-03-06T10:46:58;14.33;;;9.60;;
25497;SDS011;13406;53.380;7.226;2024-03-06T10:49:25;18.20;;;10.40;;
25497;SDS011;13406;53.380;7.226;2024-03-06T10:51:53;19.03;;;10.10;;
25497;SDS011;13406;53.380;7.226;2024-03-06T10:54:22;14.83;;;10.47;;
25497;SDS011;13406;53.380;7.226;2024-03-06T10:56:51;17.90;;;11.30;;
25497;SDS011;13406;53.380;7.226;2024-03-06T10:59:20;17.13;;;10.97;;
25497;SDS011;13406;53.380;7.226;2024-03-06T11:01:46;17.67;;;9.43;;
25497;SDS011;13406;53.380;7.226;2024-03-06T11:04:12;15.63;;;10.30;;
25497;SDS011;13406;53.380;7.226;2024-03-06T11:06:38;19.57;;;12.50;;
25497;SDS011;13406;53.380;7.226;2024-03-06T11:09:04;17.47;;;11.90;;
25497;SDS011;13406;53.380;7.226;2024-03-06T11:11:31;18.13;;;11.50;;
25497;SDS011;13406;53.380;7.226;2024-03-06T11:14:00;15.97;;;11.23;;
25497;SDS011;13406;53.380;7.226;2024-03-06T11:16:32;23.63;;;11.47;;
25497;SDS011;13406;53.380;7.226;2024-03-06T11:19:17;17.17;;;12.00;;
25497;SDS011;13406;53.380;7.226;2024-03-06T11:21:46;19.40;;;12.23;;
25497;SDS011;13406;53.380;7.226;2024-03-06T11:24:13;22.20;;;13.17;;
25497;SDS011;13406;53.380;7.226;2024-03-06T11:26:46;18.57;;;11.37;;
25497;SDS011;13406;53.380;7.226;2024-03-06T11:29:17;19.90;;;12.60;;
25497;SDS011;13406;53.380;7.226;2024-03-06T11:31:58;18.37;;;13.33;;
25497;SDS011;13406;53.380;7.226;2024-03-06T11:34:26;18.13;;;12.43;;
25497;SDS011;13406;53.380;7.226;2024-03-06T11:36:56;18.47;;;12.27;;
25497;SDS011;13406;53.380;7.226;2024-03-06T11:39:22;18.93;;;13.10;;
25497;SDS011;13406;53.380;7.226;2024-03-06T11:41:48;19.10;;;13.10;;
25497;SDS011;13406;53.380;7.226;2024-03-06T11:44:16;19.23;;;12.80;;
25497;SDS011;13406;53.380;7.226;2024-03-06T11:49:20;22.33;;;14.20;;
25497;SDS011;13406;53.380;7.226;2024-03-06T11:51:50;23.77;;;13.77;;
25497;SDS011;13406;53.380;7.226;2024-03-06T11:54:16;21.33;;;13.73;;
25497;SDS011;13406;53.380;7.226;2024-03-06T11:56:48;17.50;;;12.23;;
25497;SDS011;13406;53.380;7.226;2024-03-06T11:59:15;19.10;;;12.67;;
25497;SDS011;13406;53.380;7.226;2024-03-06T12:01:41;20.40;;;12.53;;
25497;SDS011;13406;53.380;7.226;2024-03-06T12:04:07;22.33;;;12.60;;
25497;SDS011;13406;53.380;7.226;2024-03-06T12:06:32;18.70;;;12.07;;
25497;SDS011;13406;53.380;7.226;2024-03-06T12:08:59;19.97;;;12.77;;
25497;SDS011;13406;53.380;7.226;2024-03-06T12:11:24;19.30;;;11.77;;
25497;SDS011;13406;53.380;7.226;2024-03-06T12:13:51;23.30;;;13.10;;
25497;SDS011;13406;53.380;7.226;2024-03-06T12:16:17;19.80;;;11.83;;
25497;SDS011;13406;53.380;7.226;2024-03-06T12:18:43;18.60;;;12.20;;
25497;SDS011;13406;53.380;7.226;2024-03-06T12:21:10;17.67;;;11.63;;
25497;SDS011;13406;53.380;7.226;2024-03-06T12:23:36;16.20;;;11.40;;
25497;SDS011;13406;53.380;7.226;2024-03-06T12:26:10;20.33;;;12.63;;
25497;SDS011;13406;53.380;7.226;2024-03-06T12:28:39;21.00;;;13.00;;
25497;SDS011;13406;53.380;7.226;2024-03-06T12:31:08;23.47;;;13.50;;
25497;SDS011;13406;53.380;7.226;2024-03-06T12:33:33;20.87;;;13.00;;
25497;SDS011;13406;53.380;7.226;2024-03-06T12:36:01;23.97;;;13.40;;
25497;SDS011;13406;53.380;7.226;2024-03-06T12:38:31;22.30;;;13.07;;
25497;SDS011;13406;53.380;7.226;2024-03-06T12:40:57;21.00;;;13.60;;
25497;SDS011;13406;53.380;7.226;2024-03-06T12:43:23;17.93;;;12.83;;
25497;SDS011;13406;53.380;7.226;2024-03-06T12:45:49;20.23;;;13.47;;
25497;SDS011;13406;53.380;7.226;2024-03-06T12:48:15;19.50;;;13.20;;
25497;SDS011;13406;53.380;7.226;2024-03-06T12:50:40;20.63;;;12.67;;
25497;SDS011;13406;53.380;7.226;2024-03-06T12:53:07;19.67;;;13.67;;
25497;SDS011;13406;53.380;7.226;2024-03-06T12:55:33;20.17;;;12.30;;
25497;SDS011;13406;53.380;7.226;2024-03-06T12:57:58;25.43;;;13.63;;
25497;SDS011;13406;53.380;7.226;2024-03-06T13:00:24;24.87;;;13.87;;
25497;SDS011;13406;53.380;7.226;2024-03-06T13:02:50;24.93;;;14.30;;
25497;SDS011;13406;53.380;7.226;2024-03-06T13:05:16;18.53;;;13.00;;
25497;SDS011;13406;53.380;7.226;2024-03-06T13:07:42;21.70;;;12.77;;
25497;SDS011;13406;53.380;7.226;2024-03-06T13:10:08;23.10;;;14.67;;
25497;SDS011;13406;53.380;7.226;2024-03-06T13:12:36;20.97;;;12.97;;
25497;SDS011;13406;53.380;7.226;2024-03-06T13:15:01;22.13;;;14.47;;
25497;SDS011;13406;53.380;7.226;2024-03-06T13:17:28;25.83;;;14.33;;
25497;SDS011;13406;53.380;7.226;2024-03-06T13:19:54;19.90;;;13.00;;
25497;SDS011;13406;53.380;7.226;2024-03-06T13:22:21;25.53;;;14.20;;
25497;SDS011;13406;53.380;7.226;2024-03-06T13:24:48;22.03;;;14.10;;
25497;SDS011;13406;53.380;7.226;2024-03-06T13:27:13;19.87;;;12.73;;
25497;SDS011;13406;53.380;7.226;2024-03-06T13:29:39;20.63;;;14.30;;
25497;SDS011;13406;53.380;7.226;2024-03-06T13:32:05;23.80;;;14.50;;
25497;SDS011;13406;53.380;7.226;2024-03-06T13:34:32;22.27;;;13.93;;
25497;SDS011;13406;53.380;7.226;2024-03-06T13:36:58;22.60;;;14.53;;
25497;SDS011;13406;53.380;7.226;2024-03-06T13:39:23;24.77;;;15.20;;
25497;SDS011;13406;53.380;7.226;2024-03-06T13:41:49;23.97;;;13.70;;
25497;SDS011;13406;53.380;7.226;2024-03-06T13:44:14;23.00;;;14.43;;
25497;SDS011;13406;53.380;7.226;2024-03-06T13:46:40;25.63;;;14.23;;
25497;SDS011;13406;53.380;7.226;2024-03-06T13:49:05;22.50;;;14.47;;
25497;SDS011;13406;53.380;7.226;2024-03-06T13:51:31;24.10;;;14.03;;
25497;SDS011;13406;53.380;7.226;2024-03-06T13:53:56;21.97;;;14.70;;
25497;SDS011;13406;53.380;7.226;2024-03-06T13:56:22;24.60;;;13.93;;
25497;SDS011;13406;53.380;7.226;2024-03-06T13:58:48;20.80;;;14.10;;
25497;SDS011;13406;53.380;7.226;2024-03-06T14:01:15;27.40;;;14.23;;
25497;SDS011;13406;53.380;7.226;2024-03-06T14:03:41;24.47;;;13.70;;
25497;SDS011;13406;53.380;7.226;2024-03-06T14:06:06;25.23;;;16.03;;
25497;SDS011;13406;53.380;7.226;2024-03-06T14:08:34;24.13;;;14.60;;
25497;SDS011;13406;53.380;7.226;2024-03-06T14:11:00;34.33;;;17.17;;
25497;SDS011;13406;53.380;7.226;2024-03-06T14:13:29;27.40;;;16.50;;
25497;SDS011;13406;53.380;7.226;2024-03-06T14:15:54;22.63;;;14.50;;
25497;SDS011;13406;53.380;7.226;2024-03-06T14:18:19;24.90;;;15.40;;
25497;SDS011;13406;53.380;7.226;2024-03-06T14:20:45;28.20;;;15.70;;
25497;SDS011;13406;53.380;7.226;2024-03-06T14:23:10;24.83;;;15.37;;
25497;SDS011;13406;53.380;7.226;2024-03-06T14:25:36;25.77;;;14.63;;
25497;SDS011;13406;53.380;7.226;2024-03-06T14:28:03;26.20;;;15.27;;
25497;SDS011;13406;53.380;7.226;2024-03-06T14:30:29;22.40;;;14.97;;